createdAt,value
2022-12-03T00:00:32.792Z,-3.42
2022-12-03T00:03:19.931Z,-3.43
2022-12-03T00:05:49.460Z,-3.44
2022-12-03T00:08:17.775Z,-3.43
2022-12-03T00:10:46.079Z,-3.47
2022-12-03T00:13:14.309Z,-3.47
2022-12-03T00:15:42.477Z,-3.48
2022-12-03T00:18:10.946Z,-3.47
2022-12-03T00:20:39.149Z,-3.47
2022-12-03T00:23:07.415Z,-3.49
2022-12-03T00:25:35.897Z,-3.52
2022-12-03T00:28:04.189Z,-3.60
2022-12-03T00:30:33.621Z,-3.52
2022-12-03T00:33:01.973Z,-3.50
2022-12-03T00:35:30.564Z,-3.47
2022-12-03T00:37:58.638Z,-3.45
2022-12-03T00:40:26.916Z,-3.48
2022-12-03T00:42:55.072Z,-3.50
2022-12-03T00:45:23.551Z,-3.50
2022-12-03T00:47:51.815Z,-3.51
2022-12-03T00:50:20.001Z,-3.49
2022-12-03T00:52:49.868Z,-3.53
2022-12-03T00:55:18.309Z,-3.49
2022-12-03T00:57:47.171Z,-3.48
2022-12-03T01:00:15.867Z,-3.44
2022-12-03T01:02:44.074Z,-3.42
2022-12-03T01:05:12.425Z,-3.42
2022-12-03T01:07:40.915Z,-3.41
2022-12-03T01:10:09.452Z,-3.41
2022-12-03T01:12:37.889Z,-3.41
2022-12-03T01:15:07.403Z,-3.41
2022-12-03T01:17:35.749Z,-3.39
2022-12-03T01:20:09.801Z,-3.37
2022-12-03T01:22:38.274Z,-3.35
2022-12-03T01:25:07.520Z,-3.32
2022-12-03T01:27:35.664Z,-3.36
2022-12-03T01:30:05.389Z,-3.38
2022-12-03T01:32:33.973Z,-3.41
2022-12-03T01:35:02.152Z,-3.47
2022-12-03T01:37:30.362Z,-3.50
2022-12-03T01:39:58.926Z,-3.49
2022-12-03T01:42:31.153Z,-3.50
2022-12-03T01:45:01.019Z,-3.54
2022-12-03T01:47:32.354Z,-3.56
2022-12-03T01:50:05.803Z,-3.55
2022-12-03T01:52:38.305Z,-3.55
2022-12-03T01:55:16.366Z,-3.54
2022-12-03T01:57:51.697Z,-3.52
2022-12-03T02:00:23.790Z,-3.52
2022-12-03T02:02:57.980Z,-3.51
2022-12-03T02:05:29.041Z,-3.51
2022-12-03T02:07:57.914Z,-3.53
2022-12-03T02:10:36.260Z,-3.57
2022-12-03T02:13:08.333Z,-3.58
2022-12-03T02:15:38.506Z,-3.58
2022-12-03T02:18:09.060Z,-3.58
2022-12-03T02:20:45.735Z,-3.59
2022-12-03T02:23:26.226Z,-3.58
2022-12-03T02:25:54.531Z,-3.61
2022-12-03T02:28:22.721Z,-3.62
2022-12-03T02:30:51.329Z,-3.64
2022-12-03T02:33:19.637Z,-3.65
2022-12-03T02:35:48.646Z,-3.72
2022-12-03T02:38:28.161Z,-3.60
2022-12-03T02:41:01.204Z,-3.58
2022-12-03T02:43:29.549Z,-3.56
2022-12-03T02:46:00.427Z,-3.55
2022-12-03T02:48:46.490Z,-3.54
2022-12-03T02:51:15.121Z,-3.53
2022-12-03T02:53:46.153Z,-3.53
2022-12-03T02:56:19.409Z,-3.53
2022-12-03T02:58:50.193Z,-3.54
2022-12-03T03:01:18.698Z,-3.55
2022-12-03T03:03:48.875Z,-3.53
2022-12-03T03:06:19.571Z,-3.52
2022-12-03T03:08:49.031Z,-3.51
2022-12-03T03:11:17.404Z,-3.49
2022-12-03T03:13:46.119Z,-3.48
2022-12-03T03:16:14.773Z,-3.47
2022-12-03T03:18:42.972Z,-3.47
2022-12-03T03:21:12.709Z,-3.48
2022-12-03T03:23:40.824Z,-3.49
2022-12-03T03:26:12.400Z,-3.55
2022-12-03T03:28:44.964Z,-3.45
2022-12-03T03:31:15.404Z,-3.42
2022-12-03T03:33:45.738Z,-3.42
2022-12-03T03:36:15.413Z,-3.42
2022-12-03T03:38:44.273Z,-3.39
2022-12-03T03:41:13.566Z,-3.38
2022-12-03T03:43:44.387Z,-3.37
2022-12-03T03:46:13.833Z,-3.37
2022-12-03T03:48:43.944Z,-3.37
2022-12-03T03:51:13.471Z,-3.38
2022-12-03T03:53:45.090Z,-3.35
2022-12-03T03:56:14.800Z,-3.32
2022-12-03T03:58:43.345Z,-3.32
2022-12-03T04:01:13.418Z,-3.33
2022-12-03T04:03:41.824Z,-3.32
2022-12-03T04:06:10.520Z,-3.30
2022-12-03T04:08:41.076Z,-3.27
2022-12-03T04:11:28.510Z,-3.27
2022-12-03T04:13:56.641Z,-3.26
2022-12-03T04:16:24.937Z,-3.27
2022-12-03T04:18:53.269Z,-3.28
2022-12-03T04:21:42.199Z,-3.28
2022-12-03T04:24:11.578Z,-3.30
2022-12-03T04:26:58.561Z,-3.41
2022-12-03T04:29:26.678Z,-3.33
2022-12-03T04:32:13.698Z,-3.29
2022-12-03T04:35:00.433Z,-3.29
2022-12-03T04:37:28.629Z,-3.27
2022-12-03T04:39:56.812Z,-3.25
2022-12-03T04:42:25.449Z,-3.23
2022-12-03T04:44:54.116Z,-3.21
2022-12-03T04:47:22.719Z,-3.20
2022-12-03T04:49:51.738Z,-3.18
2022-12-03T04:52:21.097Z,-3.16
2022-12-03T04:54:49.772Z,-3.14
2022-12-03T04:57:18.465Z,-3.13
2022-12-03T04:59:46.735Z,-3.17
2022-12-03T05:02:15.366Z,-3.19
2022-12-03T05:04:44.756Z,-3.22
2022-12-03T05:07:13.426Z,-3.25
2022-12-03T05:09:41.578Z,-3.28
2022-12-03T05:12:09.906Z,-3.26
2022-12-03T05:14:38.319Z,-3.23
2022-12-03T05:17:06.560Z,-3.21
2022-12-03T05:19:53.498Z,-3.21
2022-12-03T05:22:21.852Z,-3.22
2022-12-03T05:24:50.235Z,-3.19
2022-12-03T05:27:23.407Z,-3.15
2022-12-03T05:29:52.431Z,-3.13
2022-12-03T05:32:21.004Z,-3.12
2022-12-03T05:34:49.358Z,-3.10
2022-12-03T05:37:17.649Z,-3.07
2022-12-03T05:39:45.767Z,-3.04
2022-12-03T05:42:32.742Z,-3.03
2022-12-03T05:45:01.215Z,-3.06
2022-12-03T05:47:29.479Z,-3.07
2022-12-03T05:49:57.682Z,-3.07
2022-12-03T05:52:26.302Z,-3.07
2022-12-03T05:54:55.979Z,-3.07
2022-12-03T05:57:24.526Z,-3.06
2022-12-03T05:59:52.759Z,-3.05
2022-12-03T06:02:21.351Z,-3.03
2022-12-03T06:04:49.986Z,-3.04
2022-12-03T06:07:18.309Z,-3.14
2022-12-03T06:09:46.496Z,-3.05
2022-12-03T06:12:15.000Z,-3.05
2022-12-03T06:14:43.212Z,-3.05
2022-12-03T06:17:11.710Z,-3.05
2022-12-03T06:19:40.004Z,-3.03
2022-12-03T06:22:08.216Z,-3.02
2022-12-03T06:24:36.422Z,-3.00
2022-12-03T06:27:05.494Z,-2.98
2022-12-03T06:29:33.830Z,-2.95
2022-12-03T06:32:02.696Z,-2.92
2022-12-03T06:34:31.330Z,-2.89
2022-12-03T06:36:59.604Z,-2.90
2022-12-03T06:39:27.788Z,-2.94
2022-12-03T06:41:56.155Z,-2.93
2022-12-03T06:44:24.364Z,-2.92
2022-12-03T06:46:52.871Z,-2.94
2022-12-03T06:49:21.331Z,-2.91
2022-12-03T06:51:49.507Z,-2.91
2022-12-03T06:54:17.704Z,-2.92
2022-12-03T06:56:47.275Z,-2.92
2022-12-03T06:59:15.545Z,-2.91
2022-12-03T07:01:44.503Z,-2.90
2022-12-03T07:07:00.560Z,-2.92
2022-12-03T07:09:29.355Z,-2.92
2022-12-03T07:11:57.775Z,-2.92
2022-12-03T07:14:26.119Z,-2.90
2022-12-03T07:16:54.440Z,-2.86
2022-12-03T07:19:25.252Z,-2.84
2022-12-03T07:21:57.890Z,-2.83
2022-12-03T07:24:26.609Z,-2.84
2022-12-03T07:26:55.072Z,-2.84
2022-12-03T07:29:24.060Z,-2.90
2022-12-03T07:31:52.478Z,-2.79
2022-12-03T07:34:20.761Z,-2.76
2022-12-03T07:36:49.269Z,-2.72
2022-12-03T07:39:17.559Z,-2.69
2022-12-03T07:41:46.040Z,-2.66
2022-12-03T07:44:15.017Z,-2.67
2022-12-03T07:46:43.469Z,-2.67
2022-12-03T07:49:12.494Z,-2.65
2022-12-03T07:51:41.083Z,-2.63
2022-12-03T07:54:09.529Z,-2.62
2022-12-03T07:56:37.953Z,-2.62
2022-12-03T07:59:06.504Z,-2.63
2022-12-03T08:01:34.935Z,-2.63
2022-12-03T08:04:03.558Z,-2.60
2022-12-03T08:06:31.708Z,-2.60
2022-12-03T08:09:00.127Z,-2.57
2022-12-03T08:11:29.559Z,-2.53
2022-12-03T08:13:58.368Z,-2.51
2022-12-03T08:16:26.620Z,-2.50
2022-12-03T08:18:57.674Z,-2.49
2022-12-03T08:21:35.231Z,-2.46
2022-12-03T08:24:20.042Z,-2.43
2022-12-03T08:26:49.703Z,-2.40
2022-12-03T08:29:19.980Z,-2.39
2022-12-03T08:31:57.310Z,-2.36
2022-12-03T08:34:36.043Z,-2.34
2022-12-03T08:37:16.240Z,-2.31
2022-12-03T08:39:48.467Z,-2.30
2022-12-03T08:42:41.693Z,-2.27
2022-12-03T08:45:40.046Z,-2.24
2022-12-03T08:48:35.097Z,-2.22
2022-12-03T08:51:19.251Z,-2.21
2022-12-03T08:53:58.120Z,-2.34
2022-12-03T08:56:33.399Z,-2.19
2022-12-03T08:59:26.900Z,-2.17
2022-12-03T09:01:56.502Z,-2.12
2022-12-03T09:04:41.781Z,-2.08
2022-12-03T09:07:10.208Z,-2.13
2022-12-03T09:09:39.115Z,-2.09
2022-12-03T09:12:07.709Z,-2.08
2022-12-03T09:14:36.129Z,-2.07
2022-12-03T09:17:05.056Z,-2.13
2022-12-03T09:19:33.614Z,-2.02
2022-12-03T09:22:02.271Z,-1.99
2022-12-03T09:24:30.881Z,-2.24
2022-12-03T09:26:59.307Z,-1.97
2022-12-03T09:29:27.990Z,-1.96
2022-12-03T09:31:56.543Z,-2.05
2022-12-03T09:34:25.523Z,-1.95
2022-12-03T09:36:54.200Z,-1.93
2022-12-03T09:39:22.717Z,-1.94
2022-12-03T09:41:51.186Z,-1.97
2022-12-03T09:44:19.874Z,-1.95
2022-12-03T09:46:51.558Z,-2.01
2022-12-03T09:49:20.297Z,-1.93
2022-12-03T09:51:49.123Z,-1.90
2022-12-03T09:54:26.746Z,-1.88
2022-12-03T09:56:57.778Z,-1.88
2022-12-03T09:59:34.461Z,-1.87
2022-12-03T10:02:03.867Z,-1.84
2022-12-03T10:04:32.645Z,-1.86
2022-12-03T10:07:01.586Z,-1.86
2022-12-03T10:09:30.806Z,-1.85
2022-12-03T10:12:00.141Z,-1.83
2022-12-03T10:14:29.200Z,-1.85
2022-12-03T10:16:59.823Z,-1.85
2022-12-03T10:19:35.964Z,-1.85
2022-12-03T10:22:04.523Z,-1.83
2022-12-03T10:24:35.436Z,-1.84
2022-12-03T10:27:20.263Z,-1.84
2022-12-03T10:29:57.541Z,-1.85
2022-12-03T10:32:38.586Z,-1.88
2022-12-03T10:35:16.861Z,-1.87
2022-12-03T10:38:07.833Z,-1.89
2022-12-03T10:40:40.713Z,-1.88
2022-12-03T10:43:19.901Z,-1.87
2022-12-03T10:46:11.553Z,-1.98
2022-12-03T10:48:40.770Z,-1.93
2022-12-03T10:51:23.000Z,-1.88
2022-12-03T10:53:51.515Z,-2.02
2022-12-03T10:56:27.713Z,-1.98
2022-12-03T10:58:56.661Z,-1.99
2022-12-03T11:01:27.335Z,-2.02
2022-12-03T11:04:04.404Z,-2.17
2022-12-03T11:06:33.292Z,-2.03
2022-12-03T11:09:08.760Z,-1.99
2022-12-03T11:11:37.835Z,-1.96
2022-12-03T11:14:06.323Z,-1.96
2022-12-03T11:16:41.009Z,-1.95
2022-12-03T11:19:12.437Z,-1.91
2022-12-03T11:22:10.488Z,-1.92
2022-12-03T11:24:40.819Z,-1.96
2022-12-03T11:27:09.624Z,-1.98
2022-12-03T11:29:49.857Z,-1.95
2022-12-03T11:32:40.712Z,-1.93
2022-12-03T11:35:15.772Z,-1.98
2022-12-03T11:37:44.275Z,-1.95
2022-12-03T11:40:18.724Z,-1.97
2022-12-03T11:42:48.698Z,-2.00
2022-12-03T11:45:27.572Z,-2.05
2022-12-03T11:47:58.949Z,-2.08
2022-12-03T11:50:49.734Z,-2.09
2022-12-03T11:53:26.055Z,-2.08
2022-12-03T11:56:09.375Z,-2.16
2022-12-03T11:58:38.985Z,-2.14
2022-12-03T12:01:09.071Z,-2.08
2022-12-03T12:03:46.907Z,-2.08
2022-12-03T12:06:20.689Z,-2.31
2022-12-03T12:08:52.678Z,-2.20
2022-12-03T12:11:21.212Z,-2.10
2022-12-03T12:13:50.940Z,-2.07
2022-12-03T12:16:55.833Z,-2.09
2022-12-03T12:19:35.731Z,-2.15
2022-12-03T12:22:24.391Z,-2.15
2022-12-03T12:25:04.743Z,-2.14
2022-12-03T12:27:39.712Z,-2.15
2022-12-03T12:30:14.031Z,-2.17
2022-12-03T12:33:01.372Z,-2.18
2022-12-03T12:35:33.166Z,-2.19
2022-12-03T12:38:11.159Z,-2.21
2022-12-03T12:40:43.272Z,-2.21
2022-12-03T12:43:15.218Z,-2.19
2022-12-03T12:45:45.046Z,-2.20
2022-12-03T12:48:13.316Z,-2.20
2022-12-03T12:50:44.061Z,-2.33
2022-12-03T12:53:44.698Z,-2.17
2022-12-03T12:56:32.075Z,-2.16
2022-12-03T12:59:20.866Z,-2.18
2022-12-03T13:01:50.335Z,-2.20
2022-12-03T13:04:23.906Z,-2.21
2022-12-03T13:06:54.295Z,-2.24
2022-12-03T13:09:25.575Z,-2.25
2022-12-03T13:11:57.404Z,-2.27
2022-12-03T13:14:35.377Z,-2.26
2022-12-03T13:17:24.673Z,-2.25
2022-12-03T13:20:03.680Z,-2.22
2022-12-03T13:22:35.419Z,-2.21
2022-12-03T13:28:31.335Z,-2.19
2022-12-03T13:31:15.422Z,-2.19
2022-12-03T13:33:44.051Z,-2.19
2022-12-03T13:36:16.395Z,-2.17
2022-12-03T13:38:45.316Z,-2.18
2022-12-03T13:41:37.077Z,-2.18
2022-12-03T13:44:18.406Z,-2.19
2022-12-03T13:46:47.260Z,-2.19
2022-12-03T13:49:23.527Z,-2.18
2022-12-03T13:51:52.123Z,-2.15
2022-12-03T13:54:27.991Z,-2.14
2022-12-03T13:56:56.361Z,-2.17
2022-12-03T13:59:26.314Z,-2.12
2022-12-03T14:01:55.054Z,-2.13
2022-12-03T14:06:38.764Z,-2.10
2022-12-03T14:09:07.447Z,-2.10
2022-12-03T14:11:54.671Z,-2.21
2022-12-03T14:14:23.565Z,-2.11
2022-12-03T14:16:58.196Z,-2.13
2022-12-03T14:19:28.327Z,-2.13
2022-12-03T14:21:57.098Z,-2.16
2022-12-03T14:24:25.672Z,-2.19
2022-12-03T14:26:54.299Z,-2.23
2022-12-03T14:29:22.745Z,-2.23
2022-12-03T14:31:51.283Z,-2.24
2022-12-03T14:34:19.815Z,-2.26
2022-12-03T14:36:48.225Z,-2.28
2022-12-03T14:39:16.637Z,-2.29
2022-12-03T14:42:03.814Z,-2.30
2022-12-03T14:44:32.264Z,-2.29
2022-12-03T14:47:00.721Z,-2.30
2022-12-03T14:49:29.328Z,-2.33
2022-12-03T14:51:57.828Z,-2.33
2022-12-03T14:54:26.357Z,-2.32
2022-12-03T14:56:54.896Z,-2.31
2022-12-03T14:59:27.587Z,-2.30
2022-12-03T15:01:56.908Z,-2.30
2022-12-03T15:04:25.548Z,-2.30
2022-12-03T15:06:53.956Z,-2.30
2022-12-03T15:09:22.428Z,-2.30
2022-12-03T15:11:50.742Z,-2.31
2022-12-03T15:14:19.196Z,-2.31
2022-12-03T15:16:47.655Z,-2.31
2022-12-03T15:19:16.304Z,-2.30
2022-12-03T15:21:44.744Z,-2.29
2022-12-03T15:24:13.321Z,-2.27
2022-12-03T15:26:41.692Z,-2.28
2022-12-03T15:29:10.238Z,-2.28
2022-12-03T15:31:38.632Z,-2.29
2022-12-03T15:34:07.069Z,-2.28
2022-12-03T15:36:35.558Z,-2.27
2022-12-03T15:39:04.198Z,-2.27
2022-12-03T15:41:32.876Z,-2.27
2022-12-03T15:44:02.331Z,-2.29
2022-12-03T15:46:31.682Z,-2.29
2022-12-03T15:49:00.373Z,-2.28
2022-12-03T15:51:28.856Z,-2.27
2022-12-03T15:53:57.321Z,-2.26
2022-12-03T15:56:25.727Z,-2.26
2022-12-03T15:58:54.440Z,-2.25
2022-12-03T16:01:22.924Z,-2.34
2022-12-03T16:03:51.369Z,-2.25
2022-12-03T16:06:19.838Z,-2.26
2022-12-03T16:08:48.490Z,-2.26
2022-12-03T16:11:16.861Z,-2.35
2022-12-03T16:13:45.285Z,-2.25
2022-12-03T16:16:13.751Z,-2.28
2022-12-03T16:18:44.103Z,-2.24
2022-12-03T16:21:12.421Z,-2.25
2022-12-03T16:23:41.001Z,-2.25
2022-12-03T16:26:09.386Z,-2.27
2022-12-03T16:28:37.677Z,-2.26
2022-12-03T16:31:06.253Z,-2.24
2022-12-03T16:33:34.845Z,-2.24
2022-12-03T16:36:03.889Z,-2.23
2022-12-03T16:38:33.845Z,-2.22
2022-12-03T16:41:02.517Z,-2.21
2022-12-03T16:43:30.910Z,-2.32
2022-12-03T16:46:03.293Z,-2.20
2022-12-03T16:48:31.769Z,-2.19
2022-12-03T16:51:00.141Z,-2.18
2022-12-03T16:53:28.444Z,-2.19
2022-12-03T16:55:56.908Z,-2.21
2022-12-03T16:58:25.430Z,-2.22
2022-12-03T17:00:54.357Z,-2.24
2022-12-03T17:03:23.206Z,-2.25
2022-12-03T17:05:51.554Z,-2.25
2022-12-03T17:08:20.395Z,-2.25
2022-12-03T17:10:48.747Z,-2.26
2022-12-03T17:13:17.110Z,-2.26
2022-12-03T17:15:45.429Z,-2.25
2022-12-03T17:18:13.793Z,-2.25
2022-12-03T17:20:42.548Z,-2.25
2022-12-03T17:23:12.018Z,-2.51
2022-12-03T17:25:40.304Z,-2.20
2022-12-03T17:28:08.889Z,-2.19
2022-12-03T17:30:38.784Z,-2.18
2022-12-03T17:33:07.144Z,-2.17
2022-12-03T17:35:35.472Z,-2.15
2022-12-03T17:38:03.847Z,-2.14
2022-12-03T17:40:32.252Z,-2.12
2022-12-03T17:43:00.627Z,-2.11
2022-12-03T17:45:29.105Z,-2.08
2022-12-03T17:47:57.472Z,-2.07
2022-12-03T17:50:26.300Z,-2.06
2022-12-03T17:52:54.612Z,-2.04
2022-12-03T17:55:32.094Z,-2.03
2022-12-03T17:58:05.291Z,-2.01
2022-12-03T18:00:34.255Z,-2.33
2022-12-03T18:03:02.613Z,-2.08
2022-12-03T18:05:31.066Z,-2.01
2022-12-03T18:07:59.593Z,-2.00
2022-12-03T18:10:28.106Z,-2.00
2022-12-03T18:13:01.421Z,-1.99
2022-12-03T18:15:31.098Z,-1.97
2022-12-03T18:17:59.927Z,-1.96
2022-12-03T18:20:28.540Z,-1.96
2022-12-03T18:22:59.466Z,-1.94
2022-12-03T18:25:29.307Z,-1.93
2022-12-03T18:27:57.924Z,-1.91
2022-12-03T18:30:26.530Z,-1.90
2022-12-03T18:32:55.070Z,-1.88
2022-12-03T18:35:23.822Z,-1.88
2022-12-03T18:37:52.146Z,-1.87
2022-12-03T18:40:23.707Z,-1.86
2022-12-03T18:42:52.330Z,-1.85
2022-12-03T18:45:20.766Z,-1.84
2022-12-03T18:47:49.751Z,-1.83
2022-12-03T18:50:18.187Z,-1.83
2022-12-03T18:52:46.607Z,-1.82
2022-12-03T18:55:18.860Z,-1.81
2022-12-03T18:57:47.218Z,-1.79
2022-12-03T19:00:16.216Z,-1.79
2022-12-03T19:03:02.622Z,-1.79
2022-12-03T19:05:34.551Z,-1.80
2022-12-03T19:08:03.937Z,-1.81
2022-12-03T19:10:32.611Z,-1.81
2022-12-03T19:13:00.994Z,-1.80
2022-12-03T19:15:29.337Z,-1.79
2022-12-03T19:17:57.752Z,-1.78
2022-12-03T19:20:26.260Z,-1.77
2022-12-03T19:22:54.633Z,-1.75
2022-12-03T19:25:23.331Z,-1.74
2022-12-03T19:27:55.303Z,-1.79
2022-12-03T19:30:23.963Z,-1.73
2022-12-03T19:32:52.591Z,-1.71
2022-12-03T19:35:21.626Z,-1.84
2022-12-03T19:37:50.304Z,-1.70
2022-12-03T19:40:18.778Z,-1.67
2022-12-03T19:42:47.308Z,-1.66
2022-12-03T19:45:15.691Z,-1.65
2022-12-03T19:47:43.966Z,-1.64
2022-12-03T19:50:19.416Z,-1.63
2022-12-03T19:52:51.424Z,-1.60
2022-12-03T19:55:20.172Z,-1.60
2022-12-03T19:57:48.920Z,-1.60
2022-12-03T20:00:17.878Z,-1.59
2022-12-03T20:02:49.229Z,-1.68
2022-12-03T20:05:17.634Z,-1.57
2022-12-03T20:07:45.966Z,-1.55
2022-12-03T20:10:14.649Z,-1.54
2022-12-03T20:12:42.982Z,-1.54
2022-12-03T20:15:12.367Z,-1.54
2022-12-03T20:17:40.611Z,-1.54
2022-12-03T20:20:12.394Z,-1.54
2022-12-03T20:22:41.109Z,-1.54
2022-12-03T20:25:10.277Z,-1.52
2022-12-03T20:27:38.538Z,-1.51
2022-12-03T20:30:07.462Z,-1.51
2022-12-03T20:32:40.556Z,-1.49
2022-12-03T20:35:12.310Z,-1.49
2022-12-03T20:37:40.629Z,-1.49
2022-12-03T20:40:09.631Z,-1.48
2022-12-03T20:42:37.969Z,-1.46
2022-12-03T20:45:06.787Z,-1.44
2022-12-03T20:47:35.015Z,-1.43
2022-12-03T20:50:03.542Z,-1.43
2022-12-03T20:52:32.052Z,-1.47
2022-12-03T20:55:00.869Z,-1.50
2022-12-03T20:57:29.320Z,-1.39
2022-12-03T20:59:58.849Z,-1.39
2022-12-03T21:02:27.369Z,-1.37
2022-12-03T21:04:56.094Z,-1.41
2022-12-03T21:07:24.455Z,-1.36
2022-12-03T21:09:52.974Z,-1.34
2022-12-03T21:12:21.572Z,-1.32
2022-12-03T21:14:49.961Z,-1.30
2022-12-03T21:17:18.551Z,-1.28
2022-12-03T21:19:47.476Z,-1.27
2022-12-03T21:22:15.665Z,-1.26
2022-12-03T21:24:44.175Z,-1.26
2022-12-03T21:27:17.096Z,-1.25
2022-12-03T21:29:49.942Z,-1.25
2022-12-03T21:32:19.151Z,-1.24
2022-12-03T21:34:47.893Z,-1.24
2022-12-03T21:37:16.143Z,-1.23
2022-12-03T21:39:44.364Z,-1.22
2022-12-03T21:42:34.686Z,-1.21
2022-12-03T21:45:01.132Z,-1.19
2022-12-03T21:47:35.089Z,-1.17
2022-12-03T21:50:07.869Z,-1.16
2022-12-03T21:52:36.216Z,-1.15
2022-12-03T21:55:05.139Z,-1.14
2022-12-03T21:57:36.694Z,-1.13
2022-12-03T22:00:07.931Z,-1.11
2022-12-03T22:02:40.251Z,-1.09
2022-12-03T22:05:10.522Z,-1.07
2022-12-03T22:07:39.666Z,-1.05
2022-12-03T22:10:10.120Z,-1.04
2022-12-03T22:12:40.890Z,-1.01
2022-12-03T22:15:16.543Z,-1.00
2022-12-03T22:17:47.688Z,-0.98
2022-12-03T22:20:15.986Z,-0.96
2022-12-03T22:22:44.186Z,-0.94
2022-12-03T22:25:13.516Z,-0.93
2022-12-03T22:27:41.993Z,-0.91
2022-12-03T22:30:10.398Z,-0.88
2022-12-03T22:32:38.609Z,-0.86
2022-12-03T22:35:07.146Z,-0.85
2022-12-03T22:37:35.365Z,-0.84
2022-12-03T22:40:05.044Z,-0.82
2022-12-03T22:42:33.298Z,-0.81
2022-12-03T22:45:01.550Z,-0.88
2022-12-03T22:47:29.838Z,-0.77
2022-12-03T22:49:58.138Z,-0.76
2022-12-03T22:52:26.405Z,-0.73
2022-12-03T22:54:54.633Z,-0.72
2022-12-03T22:57:22.837Z,-0.70
2022-12-03T22:59:51.046Z,-0.69
2022-12-03T23:02:19.464Z,-0.68
2022-12-03T23:04:47.772Z,-0.67
2022-12-03T23:07:16.028Z,-0.69
2022-12-03T23:09:44.172Z,-0.74
2022-12-03T23:12:14.729Z,-0.63
2022-12-03T23:14:42.914Z,-0.61
2022-12-03T23:17:11.144Z,-0.60
2022-12-03T23:19:39.364Z,-0.58
2022-12-03T23:22:08.138Z,-0.57
2022-12-03T23:24:36.946Z,-0.57
2022-12-03T23:27:05.187Z,-0.57
2022-12-03T23:29:35.113Z,-0.56
2022-12-03T23:32:03.467Z,-0.54
2022-12-03T23:34:31.701Z,-0.53
2022-12-03T23:37:00.059Z,-0.53
2022-12-03T23:39:28.263Z,-0.53
2022-12-03T23:41:56.914Z,-0.52
2022-12-03T23:44:27.856Z,-0.51
2022-12-03T23:46:56.109Z,-0.52
2022-12-03T23:49:24.361Z,-0.53
2022-12-03T23:51:52.610Z,-0.51
2022-12-03T23:54:20.769Z,-0.50
2022-12-03T23:56:49.113Z,-0.48
2022-12-03T23:59:17.394Z,-0.47
